San Diego/Montgomery Field, California
Current Conditions -  °F | °C
As of 10:53 AM on Sunday 21 Dec 2014 (Local Time) from KMYF Reporting Station
Clear Clear  
Wind Chill: 64°   Ceiling: Unl
Heat Index: 64°   Visibility: 10mi
Dew Point: 50°   Wind: 3mph
Humidity: 60%   Direction: 350°N
Pressure: 30.13"   Gusts: NA
Location:  32.82°N, 117.13°W
Report Text: KMYF 211853Z 35003KT 10SM CLR 18/10 A3013 RMK AO2 SLP199 T01780100
Loading
Personal Weather Stations






























Interactive Weather Map New forecast layout! Learn more

10-Day Weather Forecast

Advertisements
Track Severe Weather on mobile